sensor_id;sensor_type;location;lat;lon;timestamp;pressure;altitude;pressure_sealevel;temperature;humidity
61682;BME280;47577;43.610;25.010;2023-01-29T00:02:20;100741.31;;;1.52;91.24
61682;BME280;47577;43.610;25.010;2023-01-29T00:04:45;100737.84;;;1.55;90.41
61682;BME280;47577;43.610;25.010;2023-01-29T00:07:11;100757.13;;;1.60;89.87
61682;BME280;47577;43.610;25.010;2023-01-29T00:09:36;100754.50;;;1.60;90.02
61682;BME280;47577;43.610;25.010;2023-01-29T00:12:02;100748.34;;;1.56;89.49
61682;BME280;47577;43.610;25.010;2023-01-29T00:14:28;100749.19;;;1.49;89.89
61682;BME280;47577;43.610;25.010;2023-01-29T00:16:53;100744.78;;;1.48;89.78
61682;BME280;47577;43.610;25.010;2023-01-29T00:19:19;100744.72;;;1.42;90.49
61682;BME280;47577;43.610;25.010;2023-01-29T00:21:45;100749.94;;;1.37;90.61
61682;BME280;47577;43.610;25.010;2023-01-29T00:24:11;100752.59;;;1.40;90.54
61682;BME280;47577;43.610;25.010;2023-01-29T00:26:37;100745.59;;;1.39;90.46
61682;BME280;47577;43.610;25.010;2023-01-29T00:29:06;100742.97;;;1.38;90.42
61682;BME280;47577;43.610;25.010;2023-01-29T00:31:33;100755.25;;;1.45;90.67
61682;BME280;47577;43.610;25.010;2023-01-29T00:33:59;100758.81;;;1.52;89.83
61682;BME280;47577;43.610;25.010;2023-01-29T00:36:25;100762.34;;;1.58;89.44
61682;BME280;47577;43.610;25.010;2023-01-29T00:38:59;100764.91;;;1.49;90.22
61682;BME280;47577;43.610;25.010;2023-01-29T00:41:31;100766.63;;;1.47;90.34
61682;BME280;47577;43.610;25.010;2023-01-29T00:44:17;100758.78;;;1.49;90.31
61682;BME280;47577;43.610;25.010;2023-01-29T00:47:02;100759.66;;;1.48;90.12
61682;BME280;47577;43.610;25.010;2023-01-29T00:49:28;100761.44;;;1.55;90.18
61682;BME280;47577;43.610;25.010;2023-01-29T00:51:54;100762.41;;;1.64;89.31
61682;BME280;47577;43.610;25.010;2023-01-29T00:54:38;100755.38;;;1.62;89.46
61682;BME280;47577;43.610;25.010;2023-01-29T00:57:04;100762.47;;;1.72;89.52
61682;BME280;47577;43.610;25.010;2023-01-29T00:59:30;100763.44;;;1.82;89.07
61682;BME280;47577;43.610;25.010;2023-01-29T01:01:55;100766.88;;;1.79;88.37
61682;BME280;47577;43.610;25.010;2023-01-29T01:04:39;100766.97;;;1.89;88.50
61682;BME280;47577;43.610;25.010;2023-01-29T01:07:06;100765.22;;;1.89;87.72
61682;BME280;47577;43.610;25.010;2023-01-29T01:09:34;100770.50;;;1.95;88.36
61682;BME280;47577;43.610;25.010;2023-01-29T01:12:19;100767.00;;;1.93;88.15
61682;BME280;47577;43.610;25.010;2023-01-29T01:14:45;100772.28;;;1.96;87.91
61682;BME280;47577;43.610;25.010;2023-01-29T01:17:10;100763.50;;;1.94;87.93
61682;BME280;47577;43.610;25.010;2023-01-29T01:19:36;100771.34;;;1.88;88.03
61682;BME280;47577;43.610;25.010;2023-01-29T01:22:02;100775.69;;;1.86;87.87
61682;BME280;47577;43.610;25.010;2023-01-29T01:24:29;100763.41;;;1.80;87.82
61682;BME280;47577;43.610;25.010;2023-01-29T01:26:56;100766.91;;;1.81;88.00
61682;BME280;47577;43.610;25.010;2023-01-29T01:29:21;100770.41;;;1.83;88.34
61682;BME280;47577;43.610;25.010;2023-01-29T01:31:48;100769.50;;;1.79;88.28
61682;BME280;47577;43.610;25.010;2023-01-29T01:34:14;100779.97;;;1.75;88.13
61682;BME280;47577;43.610;25.010;2023-01-29T01:36:40;100779.19;;;1.83;88.41
61682;BME280;47577;43.610;25.010;2023-01-29T01:39:05;100766.94;;;1.84;88.10
61682;BME280;47577;43.610;25.010;2023-01-29T01:41:31;100766.09;;;1.87;88.06
61682;BME280;47577;43.610;25.010;2023-01-29T01:43:59;100767.00;;;1.92;87.58
61682;BME280;47577;43.610;25.010;2023-01-29T01:46:34;100774.03;;;2.00;87.66
61682;BME280;47577;43.610;25.010;2023-01-29T01:49:12;100776.63;;;1.97;87.58
61682;BME280;47577;43.610;25.010;2023-01-29T01:51:42;100773.19;;;2.00;87.23
61682;BME280;47577;43.610;25.010;2023-01-29T01:54:21;100773.13;;;1.94;87.24
61682;BME280;47577;43.610;25.010;2023-01-29T01:56:52;100773.91;;;1.80;87.85
61682;BME280;47577;43.610;25.010;2023-01-29T01:59:20;100774.72;;;1.76;87.69
61682;BME280;47577;43.610;25.010;2023-01-29T02:01:50;100777.31;;;1.69;88.27
61682;BME280;47577;43.610;25.010;2023-01-29T02:04:23;100769.44;;;1.67;87.85
61682;BME280;47577;43.610;25.010;2023-01-29T02:07:11;100751.91;;;1.61;88.04
61682;BME280;47577;43.610;25.010;2023-01-29T02:09:59;100782.38;;;1.52;88.37
61682;BME280;47577;43.610;25.010;2023-01-29T02:12:27;100773.63;;;1.48;88.75
61682;BME280;47577;43.610;25.010;2023-01-29T02:14:56;100785.91;;;1.55;88.73
61682;BME280;47577;43.610;25.010;2023-01-29T02:17:22;100778.09;;;1.61;88.92
61682;BME280;47577;43.610;25.010;2023-01-29T02:20:11;100791.38;;;1.80;88.47
61682;BME280;47577;43.610;25.010;2023-01-29T02:22:50;100793.16;;;1.86;87.78
61682;BME280;47577;43.610;25.010;2023-01-29T02:25:37;100796.69;;;1.88;87.85
61682;BME280;47577;43.610;25.010;2023-01-29T02:28:27;100794.91;;;1.83;88.08
61682;BME280;47577;43.610;25.010;2023-01-29T02:31:06;100786.16;;;1.81;88.01
61682;BME280;47577;43.610;25.010;2023-01-29T02:33:41;100789.59;;;1.74;87.19
61682;BME280;47577;43.610;25.010;2023-01-29T02:36:40;100794.69;;;1.62;87.49
61682;BME280;47577;43.610;25.010;2023-01-29T02:39:36;100796.38;;;1.49;88.84
61682;BME280;47577;43.610;25.010;2023-01-29T02:42:28;100789.44;;;1.56;88.83
61682;BME280;47577;43.610;25.010;2023-01-29T02:44:59;100800.94;;;1.70;89.07
61682;BME280;47577;43.610;25.010;2023-01-29T02:47:33;100801.81;;;1.74;88.61
61682;BME280;47577;43.610;25.010;2023-01-29T02:50:08;100795.69;;;1.75;88.47
61682;BME280;47577;43.610;25.010;2023-01-29T02:53:00;100791.31;;;1.72;88.76
61682;BME280;47577;43.610;25.010;2023-01-29T02:58:08;100809.75;;;1.85;87.92
61682;BME280;47577;43.610;25.010;2023-01-29T03:00:38;100810.66;;;1.83;87.47
61682;BME280;47577;43.610;25.010;2023-01-29T03:05:45;100816.84;;;1.95;87.44
61682;BME280;47577;43.610;25.010;2023-01-29T03:08:20;100808.09;;;1.91;86.48
61682;BME280;47577;43.610;25.010;2023-01-29T03:10:52;100813.34;;;1.94;86.28
61682;BME280;47577;43.610;25.010;2023-01-29T03:18:39;100809.84;;;1.95;86.70
61682;BME280;47577;43.610;25.010;2023-01-29T03:21:20;100817.75;;;1.97;87.30
61682;BME280;47577;43.610;25.010;2023-01-29T03:24:08;100821.28;;;2.02;87.28
61682;BME280;47577;43.610;25.010;2023-01-29T03:26:55;100817.72;;;1.94;87.30
61682;BME280;47577;43.610;25.010;2023-01-29T03:29:43;100817.72;;;1.95;87.08
61682;BME280;47577;43.610;25.010;2023-01-29T03:32:29;100826.44;;;1.90;87.64
61682;BME280;47577;43.610;25.010;2023-01-29T03:34:57;100831.69;;;1.90;87.73
61682;BME280;47577;43.610;25.010;2023-01-29T03:37:39;100837.84;;;1.95;87.58
61682;BME280;47577;43.610;25.010;2023-01-29T03:40:07;100835.19;;;1.93;87.39
61682;BME280;47577;43.610;25.010;2023-01-29T03:48:30;100831.69;;;1.90;87.30
61682;BME280;47577;43.610;25.010;2023-01-29T03:51:20;100829.88;;;1.86;87.23
61682;BME280;47577;43.610;25.010;2023-01-29T03:54:30;100833.38;;;1.88;87.04
61682;BME280;47577;43.610;25.010;2023-01-29T03:57:11;100843.03;;;1.90;87.39
61682;BME280;47577;43.610;25.010;2023-01-29T03:59:52;100834.31;;;1.91;87.36
61682;BME280;47577;43.610;25.010;2023-01-29T04:02:26;100833.44;;;1.94;87.28
61682;BME280;47577;43.610;25.010;2023-01-29T04:05:08;100841.34;;;1.95;87.67
61682;BME280;47577;43.610;25.010;2023-01-29T04:07:38;100836.94;;;1.94;87.32
61682;BME280;47577;43.610;25.010;2023-01-29T04:10:10;100846.53;;;1.92;87.57
61682;BME280;47577;43.610;25.010;2023-01-29T04:12:48;100837.69;;;1.79;88.28
61682;BME280;47577;43.610;25.010;2023-01-29T04:15:16;100843.88;;;1.86;88.23
61682;BME280;47577;43.610;25.010;2023-01-29T04:17:48;100837.75;;;1.84;87.82
61682;BME280;47577;43.610;25.010;2023-01-29T04:20:15;100849.13;;;1.88;87.98
61682;BME280;47577;43.610;25.010;2023-01-29T04:22:46;100838.59;;;1.81;87.98
61682;BME280;47577;43.610;25.010;2023-01-29T04:25:18;100842.13;;;1.83;88.21
61682;BME280;47577;43.610;25.010;2023-01-29T04:28:17;100843.84;;;1.85;88.17
61682;BME280;47577;43.610;25.010;2023-01-29T04:31:03;100845.59;;;1.82;87.74
61682;BME280;47577;43.610;25.010;2023-01-29T04:33:45;100851.72;;;1.85;87.83
61682;BME280;47577;43.610;25.010;2023-01-29T04:39:23;100849.06;;;1.78;88.57
61682;BME280;47577;43.610;25.010;2023-01-29T04:42:10;100851.59;;;1.71;88.43
61682;BME280;47577;43.610;25.010;2023-01-29T04:44:58;100862.03;;;1.64;88.60
61682;BME280;47577;43.610;25.010;2023-01-29T04:50:29;100868.84;;;1.49;89.48
61682;BME280;47577;43.610;25.010;2023-01-29T04:53:14;100860.13;;;1.48;89.92
61682;BME280;47577;43.610;25.010;2023-01-29T04:55:48;100865.34;;;1.46;89.70
61682;BME280;47577;43.610;25.010;2023-01-29T04:58:32;100859.97;;;1.36;90.09
61682;BME280;47577;43.610;25.010;2023-01-29T05:01:00;100872.19;;;1.35;90.46
61682;BME280;47577;43.610;25.010;2023-01-29T05:03:30;100883.66;;;1.45;90.28
61682;BME280;47577;43.610;25.010;2023-01-29T05:05:56;100899.47;;;1.53;90.43
61682;BME280;47577;43.610;25.010;2023-01-29T05:08:26;100897.63;;;1.45;90.15
61682;BME280;47577;43.610;25.010;2023-01-29T05:10:56;100880.88;;;1.33;90.37
61682;BME280;47577;43.610;25.010;2023-01-29T05:13:25;100899.38;;;1.43;90.56
61682;BME280;47577;43.610;25.010;2023-01-29T05:18:18;100903.72;;;1.41;89.94
61682;BME280;47577;43.610;25.010;2023-01-29T05:20:45;100898.41;;;1.35;90.79
61682;BME280;47577;43.610;25.010;2023-01-29T05:23:16;100903.81;;;1.49;90.51
61682;BME280;47577;43.610;25.010;2023-01-29T05:25:42;100903.84;;;1.54;90.20
61682;BME280;47577;43.610;25.010;2023-01-29T05:28:08;100905.69;;;1.61;90.20
61682;BME280;47577;43.610;25.010;2023-01-29T05:30:52;100902.22;;;1.65;90.04
61682;BME280;47577;43.610;25.010;2023-01-29T05:33:22;100902.31;;;1.73;89.78
61682;BME280;47577;43.610;25.010;2023-01-29T05:35:48;100899.63;;;1.68;89.17
61682;BME280;47577;43.610;25.010;2023-01-29T05:38:18;100918.91;;;1.70;88.57
61682;BME280;47577;43.610;25.010;2023-01-29T05:40:44;100916.25;;;1.69;88.79
61682;BME280;47577;43.610;25.010;2023-01-29T05:43:18;100919.78;;;1.72;88.89
61682;BME280;47577;43.610;25.010;2023-01-29T05:45:55;100920.63;;;1.71;88.88
61682;BME280;47577;43.610;25.010;2023-01-29T05:48:22;100927.72;;;1.77;88.65
61682;BME280;47577;43.610;25.010;2023-01-29T05:50:48;100928.56;;;1.76;88.26
61682;BME280;47577;43.610;25.010;2023-01-29T05:53:14;100920.66;;;1.73;88.54
61682;BME280;47577;43.610;25.010;2023-01-29T05:55:43;100925.91;;;1.74;88.48
61682;BME280;47577;43.610;25.010;2023-01-29T05:58:10;100925.06;;;1.74;88.93
61682;BME280;47577;43.610;25.010;2023-01-29T06:00:36;100933.91;;;1.85;88.71
61682;BME280;47577;43.610;25.010;2023-01-29T06:03:01;100935.63;;;1.81;88.40
61682;BME280;47577;43.610;25.010;2023-01-29T06:05:27;100936.53;;;1.83;88.43
61682;BME280;47577;43.610;25.010;2023-01-29T06:07:53;100943.53;;;1.88;87.84
61682;BME280;47577;43.610;25.010;2023-01-29T06:10:18;100943.47;;;1.83;87.03
61682;BME280;47577;43.610;25.010;2023-01-29T06:12:44;100956.50;;;1.72;87.77
61682;BME280;47577;43.610;25.010;2023-01-29T06:15:11;100947.44;;;1.45;89.07
61682;BME280;47577;43.610;25.010;2023-01-29T06:17:37;100959.47;;;1.30;90.18
61682;BME280;47577;43.610;25.010;2023-01-29T06:20:04;100952.41;;;1.24;90.94
61682;BME280;47577;43.610;25.010;2023-01-29T06:22:31;100972.63;;;1.34;91.27
61682;BME280;47577;43.610;25.010;2023-01-29T06:24:57;100970.00;;;1.34;90.69
61682;BME280;47577;43.610;25.010;2023-01-29T06:27:24;100972.53;;;1.26;91.33
61682;BME280;47577;43.610;25.010;2023-01-29T06:29:49;100965.34;;;1.13;91.79
61682;BME280;47577;43.610;25.010;2023-01-29T06:32:15;100974.03;;;1.07;92.46
61682;BME280;47577;43.610;25.010;2023-01-29T06:34:41;100967.88;;;1.05;92.56
61682;BME280;47577;43.610;25.010;2023-01-29T06:37:07;100974.06;;;1.11;92.75
61682;BME280;47577;43.610;25.010;2023-01-29T06:39:33;100972.25;;;1.06;92.97
61682;BME280;47577;43.610;25.010;2023-01-29T06:41:58;100974.16;;;1.17;92.53
61682;BME280;47577;43.610;25.010;2023-01-29T06:44:24;100980.22;;;1.14;92.41
61682;BME280;47577;43.610;25.010;2023-01-29T06:46:50;100979.47;;;1.24;92.63
61682;BME280;47577;43.610;25.010;2023-01-29T06:49:15;100987.25;;;1.18;92.46
61682;BME280;47577;43.610;25.010;2023-01-29T06:51:41;100991.53;;;1.13;92.75
61682;BME280;47577;43.610;25.010;2023-01-29T06:54:08;100984.56;;;1.12;93.33
61682;BME280;47577;43.610;25.010;2023-01-29T06:56:34;100996.03;;;1.20;93.08
61682;BME280;47577;43.610;25.010;2023-01-29T06:59:00;100992.59;;;1.26;92.63
61682;BME280;47577;43.610;25.010;2023-01-29T07:01:25;101001.53;;;1.40;92.48
61682;BME280;47577;43.610;25.010;2023-01-29T07:03:51;101004.06;;;1.34;92.31
61682;BME280;47577;43.610;25.010;2023-01-29T07:06:17;101011.91;;;1.33;92.63
61682;BME280;47577;43.610;25.010;2023-01-29T07:08:43;101005.56;;;1.14;92.60
61682;BME280;47577;43.610;25.010;2023-01-29T07:11:09;101013.31;;;1.07;93.62
61682;BME280;47577;43.610;25.010;2023-01-29T07:13:35;100998.28;;;0.94;94.10
61682;BME280;47577;43.610;25.010;2023-01-29T07:16:02;101015.72;;;0.95;94.88
61682;BME280;47577;43.610;25.010;2023-01-29T07:18:28;101007.97;;;1.01;95.22
61682;BME280;47577;43.610;25.010;2023-01-29T07:20:54;101027.31;;;1.09;94.89
61682;BME280;47577;43.610;25.010;2023-01-29T07:23:20;101025.53;;;1.08;94.71
61682;BME280;47577;43.610;25.010;2023-01-29T07:25:46;101017.78;;;1.16;nan
61682;BME280;47577;43.610;25.010;2023-01-29T07:28:14;101031.56;;;1.03;94.19
61682;BME280;47577;43.610;25.010;2023-01-29T07:30:40;101025.41;;;0.99;94.70
61682;BME280;47577;43.610;25.010;2023-01-29T07:33:08;101037.56;;;0.97;95.41
61682;BME280;47577;43.610;25.010;2023-01-29T07:35:39;101034.25;;;1.06;95.02
61682;BME280;47577;43.610;25.010;2023-01-29T07:38:06;101035.25;;;1.16;94.45
61682;BME280;47577;43.610;25.010;2023-01-29T07:40:32;101029.19;;;1.20;94.31
61682;BME280;47577;43.610;25.010;2023-01-29T07:42:59;101036.19;;;1.19;94.76
61682;BME280;47577;43.610;25.010;2023-01-29T07:45:26;101045.06;;;1.31;94.39
61682;BME280;47577;43.610;25.010;2023-01-29T07:47:53;101048.63;;;1.36;94.55
61682;BME280;47577;43.610;25.010;2023-01-29T07:50:23;101045.19;;;1.38;94.00
61682;BME280;47577;43.610;25.010;2023-01-29T07:52:49;101042.53;;;1.35;94.10
61682;BME280;47577;43.610;25.010;2023-01-29T07:55:14;101038.19;;;1.37;93.84
61682;BME280;47577;43.610;25.010;2023-01-29T07:57:40;101046.19;;;1.48;93.27
61682;BME280;47577;43.610;25.010;2023-01-29T08:00:07;101041.81;;;1.49;92.76
61682;BME280;47577;43.610;25.010;2023-01-29T08:02:32;101032.22;;;1.51;93.05
61682;BME280;47577;43.610;25.010;2023-01-29T08:04:58;101033.25;;;1.59;92.48
61682;BME280;47577;43.610;25.010;2023-01-29T08:07:24;101042.00;;;1.61;92.54
61682;BME280;47577;43.610;25.010;2023-01-29T08:09:50;101051.75;;;1.71;92.48
61682;BME280;47577;43.610;25.010;2023-01-29T08:12:16;101054.41;;;1.76;91.79
61682;BME280;47577;43.610;25.010;2023-01-29T08:14:42;101047.41;;;1.72;92.99
61682;BME280;47577;43.610;25.010;2023-01-29T08:17:11;101052.66;;;1.76;91.42
61682;BME280;47577;43.610;25.010;2023-01-29T08:19:37;101050.88;;;1.71;92.28
61682;BME280;47577;43.610;25.010;2023-01-29T08:22:03;101056.13;;;1.72;91.78
61682;BME280;47577;43.610;25.010;2023-01-29T08:24:29;101046.38;;;1.63;91.98
61682;BME280;47577;43.610;25.010;2023-01-29T08:26:55;101057.72;;;1.61;92.21
61682;BME280;47577;43.610;25.010;2023-01-29T08:29:21;101049.78;;;1.55;92.92
61682;BME280;47577;43.610;25.010;2023-01-29T08:31:46;101054.34;;;1.71;93.34
61682;BME280;47577;43.610;25.010;2023-01-29T08:34:12;101072.03;;;1.88;92.94
61682;BME280;47577;43.610;25.010;2023-01-29T08:36:38;101058.94;;;1.89;92.19
61682;BME280;47577;43.610;25.010;2023-01-29T08:39:03;101072.94;;;1.88;92.47
61682;BME280;47577;43.610;25.010;2023-01-29T08:41:29;101061.50;;;1.81;92.14
61682;BME280;47577;43.610;25.010;2023-01-29T08:43:54;101061.53;;;1.86;93.11
61682;BME280;47577;43.610;25.010;2023-01-29T08:46:21;101077.41;;;1.97;92.88
61682;BME280;47577;43.610;25.010;2023-01-29T08:48:47;101065.16;;;1.93;93.14
61682;BME280;47577;43.610;25.010;2023-01-29T08:51:12;101059.94;;;1.99;92.63
61682;BME280;47577;43.610;25.010;2023-01-29T08:53:38;101069.59;;;2.00;91.93
61682;BME280;47577;43.610;25.010;2023-01-29T08:56:04;101078.34;;;2.02;91.63
61682;BME280;47577;43.610;25.010;2023-01-29T08:58:32;101070.47;;;2.02;92.40
61682;BME280;47577;43.610;25.010;2023-01-29T09:01:08;101059.19;;;2.08;91.65
61682;BME280;47577;43.610;25.010;2023-01-29T09:03:34;101073.19;;;2.08;91.61
61682;BME280;47577;43.610;25.010;2023-01-29T09:06:01;101070.59;;;2.11;91.85
61682;BME280;47577;43.610;25.010;2023-01-29T09:08:27;101062.59;;;2.02;91.96
61682;BME280;47577;43.610;25.010;2023-01-29T09:10:53;101065.31;;;2.08;92.37
61682;BME280;47577;43.610;25.010;2023-01-29T09:13:18;101066.00;;;1.92;91.93
61682;BME280;47577;43.610;25.010;2023-01-29T09:15:44;101064.16;;;1.86;92.68
61682;BME280;47577;43.610;25.010;2023-01-29T09:18:10;101063.25;;;1.82;94.05
61682;BME280;47577;43.610;25.010;2023-01-29T09:20:37;101065.97;;;1.90;95.35
61682;BME280;47577;43.610;25.010;2023-01-29T09:23:05;101082.69;;;1.98;95.68
61682;BME280;47577;43.610;25.010;2023-01-29T09:25:31;101074.03;;;2.07;94.20
61682;BME280;47577;43.610;25.010;2023-01-29T09:27:56;101063.59;;;2.12;94.96
61682;BME280;47577;43.610;25.010;2023-01-29T09:30:22;101065.28;;;2.07;92.17
61682;BME280;47577;43.610;25.010;2023-01-29T09:32:47;101048.69;;;2.08;93.05
61682;BME280;47577;43.610;25.010;2023-01-29T09:35:14;101050.50;;;2.13;95.13
61682;BME280;47577;43.610;25.010;2023-01-29T09:37:39;101056.75;;;2.26;95.14
61682;BME280;47577;43.610;25.010;2023-01-29T09:40:06;101049.78;;;2.30;92.46
61682;BME280;47577;43.610;25.010;2023-01-29T09:42:54;101049.09;;;2.45;94.28
61682;BME280;47577;43.610;25.010;2023-01-29T09:45:23;101049.03;;;2.38;93.37
61682;BME280;47577;43.610;25.010;2023-01-29T09:47:52;101049.03;;;2.40;92.73
61682;BME280;47577;43.610;25.010;2023-01-29T09:50:50;101055.13;;;2.39;92.73
61682;BME280;47577;43.610;25.010;2023-01-29T09:53:29;101042.78;;;2.27;93.37
61682;BME280;47577;43.610;25.010;2023-01-29T09:56:04;101044.13;;;1.90;93.71
61682;BME280;47577;43.610;25.010;2023-01-29T09:58:39;101034.47;;;1.89;95.63
61682;BME280;47577;43.610;25.010;2023-01-29T10:03:48;101039.88;;;1.99;95.62
61682;BME280;47577;43.610;25.010;2023-01-29T10:06:41;101030.34;;;2.09;95.60
61682;BME280;47577;43.610;25.010;2023-01-29T10:23:03;101020.97;;;2.36;93.21
61682;BME280;47577;43.610;25.010;2023-01-29T10:25:35;101010.63;;;2.48;93.53
61682;BME280;47577;43.610;25.010;2023-01-29T10:28:24;101017.66;;;2.55;91.60
61682;BME280;47577;43.610;25.010;2023-01-29T10:31:10;101007.28;;;2.68;92.55
61682;BME280;47577;43.610;25.010;2023-01-29T10:33:40;101006.41;;;2.67;91.11
61682;BME280;47577;43.610;25.010;2023-01-29T10:36:12;101007.22;;;2.62;91.30
61682;BME280;47577;43.610;25.010;2023-01-29T10:38:44;101003.69;;;2.58;91.35
61682;BME280;47577;43.610;25.010;2023-01-29T10:46:26;100996.69;;;2.57;92.81
61682;BME280;47577;43.610;25.010;2023-01-29T10:52:14;100989.75;;;2.67;93.04
61682;BME280;47577;43.610;25.010;2023-01-29T10:54:49;100994.09;;;2.62;93.17
61682;BME280;47577;43.610;25.010;2023-01-29T10:57:51;100995.09;;;2.76;93.71
61682;BME280;47577;43.610;25.010;2023-01-29T11:02:50;100980.31;;;2.89;92.11
61682;BME280;47577;43.610;25.010;2023-01-29T11:08:22;100965.31;;;2.74;91.92
61682;BME280;47577;43.610;25.010;2023-01-29T11:13:44;100958.41;;;2.91;92.42
61682;BME280;47577;43.610;25.010;2023-01-29T11:16:11;100950.56;;;2.98;93.51
61682;BME280;47577;43.610;25.010;2023-01-29T11:19:00;100953.34;;;3.21;92.82
61682;BME280;47577;43.610;25.010;2023-01-29T11:21:27;100950.78;;;3.39;91.84
61682;BME280;47577;43.610;25.010;2023-01-29T11:24:14;100957.00;;;3.54;92.10
61682;BME280;47577;43.610;25.010;2023-01-29T11:26:43;100951.72;;;3.51;90.47
61682;BME280;47577;43.610;25.010;2023-01-29T11:29:42;100950.81;;;3.44;90.60
61682;BME280;47577;43.610;25.010;2023-01-29T11:37:42;100958.53;;;3.10;89.10
61682;BME280;47577;43.610;25.010;2023-01-29T11:42:43;100946.38;;;3.31;90.65
61682;BME280;47577;43.610;25.010;2023-01-29T11:47:51;100936.66;;;3.17;89.34
61682;BME280;47577;43.610;25.010;2023-01-29T11:50:29;100945.47;;;3.25;89.11
61682;BME280;47577;43.610;25.010;2023-01-29T11:52:58;100938.50;;;3.27;89.54
61682;BME280;47577;43.610;25.010;2023-01-29T12:12:41;100929.94;;;4.24;82.55
61682;BME280;47577;43.610;25.010;2023-01-29T12:17:36;100941.34;;;3.91;86.16
61682;BME280;47577;43.610;25.010;2023-01-29T12:20:08;100932.50;;;3.73;85.27
61682;BME280;47577;43.610;25.010;2023-01-29T12:22:56;100935.06;;;3.56;86.78
61682;BME280;47577;43.610;25.010;2023-01-29T12:25:39;100930.66;;;3.44;88.36
61682;BME280;47577;43.610;25.010;2023-01-29T12:33:41;100930.53;;;3.15;89.65
61682;BME280;47577;43.610;25.010;2023-01-29T12:38:37;100925.28;;;3.17;88.30
61682;BME280;47577;43.610;25.010;2023-01-29T12:44:15;100930.63;;;3.37;88.64
61682;BME280;47577;43.610;25.010;2023-01-29T12:46:50;100924.44;;;3.27;88.35
61682;BME280;47577;43.610;25.010;2023-01-29T12:49:22;100920.91;;;3.20;88.55
61682;BME280;47577;43.610;25.010;2023-01-29T12:52:14;100940.19;;;3.16;88.81
61682;BME280;47577;43.610;25.010;2023-01-29T12:55:03;100939.28;;;3.16;89.06
61682;BME280;47577;43.610;25.010;2023-01-29T12:57:46;100940.22;;;3.27;89.29
61682;BME280;47577;43.610;25.010;2023-01-29T13:00:28;100935.88;;;3.38;90.16
61682;BME280;47577;43.610;25.010;2023-01-29T13:03:28;100940.34;;;3.50;88.41
61682;BME280;47577;43.610;25.010;2023-01-29T13:06:11;100937.69;;;3.45;88.39
61682;BME280;47577;43.610;25.010;2023-01-29T13:08:53;100928.91;;;3.40;88.51
61682;BME280;47577;43.610;25.010;2023-01-29T13:11:28;100937.66;;;3.39;88.13
61682;BME280;47577;43.610;25.010;2023-01-29T13:14:24;100936.81;;;3.43;87.68
61682;BME280;47577;43.610;25.010;2023-01-29T13:17:05;100942.06;;;3.48;87.17
61682;BME280;47577;43.610;25.010;2023-01-29T13:19:37;100937.72;;;3.52;87.83
61682;BME280;47577;43.610;25.010;2023-01-29T13:22:15;100923.66;;;3.46;87.70
61682;BME280;47577;43.610;25.010;2023-01-29T13:24:41;100939.50;;;3.62;87.81
61682;BME280;47577;43.610;25.010;2023-01-29T13:27:19;100936.84;;;3.57;87.64
61682;BME280;47577;43.610;25.010;2023-01-29T13:29:46;100946.50;;;3.61;87.34
61682;BME280;47577;43.610;25.010;2023-01-29T13:32:22;100939.56;;;3.76;86.22
61682;BME280;47577;43.610;25.010;2023-01-29T13:34:49;100943.00;;;3.67;84.92
61682;BME280;47577;43.610;25.010;2023-01-29T13:37:25;100946.53;;;3.71;86.40
61682;BME280;47577;43.610;25.010;2023-01-29T13:39:53;100941.25;;;3.67;84.73
61682;BME280;47577;43.610;25.010;2023-01-29T13:42:42;100943.03;;;3.72;84.54
61682;BME280;47577;43.610;25.010;2023-01-29T13:47:47;100940.38;;;3.69;86.90
61682;BME280;47577;43.610;25.010;2023-01-29T13:52:57;100943.91;;;3.77;84.69
61682;BME280;47577;43.610;25.010;2023-01-29T13:55:36;100942.19;;;3.76;84.39
61682;BME280;47577;43.610;25.010;2023-01-29T13:58:12;100934.28;;;3.71;82.41
61682;BME280;47577;43.610;25.010;2023-01-29T14:00:46;100940.44;;;3.79;82.88
61682;BME280;47577;43.610;25.010;2023-01-29T14:06:05;100950.97;;;3.82;83.82
61682;BME280;47577;43.610;25.010;2023-01-29T14:13:41;100936.91;;;3.73;84.62
61682;BME280;47577;43.610;25.010;2023-01-29T14:18:44;100935.16;;;3.79;84.81
61682;BME280;47577;43.610;25.010;2023-01-29T14:21:31;100940.44;;;3.82;84.22
61682;BME280;47577;43.610;25.010;2023-01-29T14:29:04;100943.06;;;3.87;83.58
61682;BME280;47577;43.610;25.010;2023-01-29T14:31:39;100938.69;;;3.89;84.28
61682;BME280;47577;43.610;25.010;2023-01-29T14:34:29;100943.06;;;3.84;82.90
61682;BME280;47577;43.610;25.010;2023-01-29T14:37:02;100947.44;;;3.85;83.09
61682;BME280;47577;43.610;25.010;2023-01-29T14:39:50;100932.47;;;3.65;82.49
61682;BME280;47577;43.610;25.010;2023-01-29T14:52:43;100945.44;;;3.22;84.76
61682;BME280;47577;43.610;25.010;2023-01-29T14:57:53;100946.22;;;2.98;85.92
61682;BME280;47577;43.610;25.010;2023-01-29T15:00:26;100933.88;;;2.89;86.02
61682;BME280;47577;43.610;25.010;2023-01-29T15:02:52;100943.53;;;2.89;86.29
61682;BME280;47577;43.610;25.010;2023-01-29T15:05:24;100944.38;;;2.86;86.42
61682;BME280;47577;43.610;25.010;2023-01-29T15:08:03;100942.66;;;2.87;86.24
61682;BME280;47577;43.610;25.010;2023-01-29T15:13:03;100925.94;;;2.76;87.56
61682;BME280;47577;43.610;25.010;2023-01-29T15:15:51;100933.00;;;2.86;87.78
61682;BME280;47577;43.610;25.010;2023-01-29T15:18:41;100940.78;;;2.75;87.23
61682;BME280;47577;43.610;25.010;2023-01-29T15:21:15;100932.91;;;2.73;88.06
61682;BME280;47577;43.610;25.010;2023-01-29T15:23:42;100929.44;;;2.76;88.31
61682;BME280;47577;43.610;25.010;2023-01-29T15:26:10;100932.88;;;2.66;87.57
61682;BME280;47577;43.610;25.010;2023-01-29T15:28:39;100933.75;;;2.66;88.44
61682;BME280;47577;43.610;25.010;2023-01-29T15:31:11;100936.41;;;2.71;88.66
61682;BME280;47577;43.610;25.010;2023-01-29T15:33:41;100946.84;;;2.62;88.16